Time;durP1;ratioP1;P1;durP2;ratioP2;P2;SDS_P1;SDS_P2;PMS_P1;PMS_P2;Temp;Humidity;BMP_temperature;BMP_pressure;BME280_temperature;BME280_humidity;BME280_pressure;Samples;Min_cycle;Max_cycle;Signal;HPM_P1;HPM_P2
2022/03/23 00:01:42;;;;;;;24.70;12.25;;;3.90;57.90;;;;;;5044760;28;20480;-70
2022/03/23 00:04:08;;;;;;;24.35;11.70;;;3.90;58.00;;;;;;5063886;28;20040;-72
2022/03/23 00:06:34;;;;;;;19.90;10.95;;;3.90;57.70;;;;;;5048775;28;20402;-71
2022/03/23 00:09:00;;;;;;;19.73;10.32;;;3.80;57.90;;;;;;5052486;28;20040;-70
2022/03/23 00:11:27;;;;;;;23.63;11.75;;;3.80;58.00;;;;;;5055495;28;20049;-72
2022/03/23 00:13:54;;;;;;;29.98;13.68;;;3.80;57.50;;;;;;5059802;28;20110;-69
2022/03/23 00:16:20;;;;;;;29.85;13.35;;;3.80;58.50;;;;;;5057310;28;20037;-70
2022/03/23 00:18:46;;;;;;;27.52;13.68;;;3.80;60.00;;;;;;5055736;28;20572;-70
2022/03/23 00:21:12;;;;;;;30.30;15.55;;;3.70;59.30;;;;;;5056388;28;20028;-70
2022/03/23 00:23:38;;;;;;;33.15;15.63;;;3.70;58.90;;;;;;5060896;28;20033;-70
2022/03/23 00:26:03;;;;;;;29.80;15.00;;;3.70;59.80;;;;;;5057731;28;20110;-70
2022/03/23 00:28:29;;;;;;;26.25;13.13;;;3.70;59.00;;;;;;5054477;28;20032;-76
2022/03/23 00:30:56;;;;;;;29.58;13.35;;;3.70;59.30;;;;;;5037220;28;20025;-75
2022/03/23 00:33:21;;;;;;;22.92;12.30;;;3.60;59.40;;;;;;5059021;28;20538;-70
2022/03/23 00:35:48;;;;;;;23.70;12.00;;;3.60;59.20;;;;;;5057299;28;20041;-70
2022/03/23 00:38:16;;;;;;;22.40;11.23;;;3.50;59.10;;;;;;5055054;28;20043;-74
2022/03/23 00:40:44;;;;;;;18.27;10.18;;;3.50;58.90;;;;;;5057208;28;20039;-75
2022/03/23 00:43:10;;;;;;;20.83;9.55;;;3.40;59.20;;;;;;5043492;28;20055;-74
2022/03/23 00:45:37;;;;;;;24.83;10.65;;;3.40;59.30;;;;;;5059496;28;20059;-75
2022/03/23 00:48:04;;;;;;;27.00;11.88;;;3.30;59.40;;;;;;5048898;28;20033;-75
2022/03/23 00:50:30;;;;;;;25.77;11.98;;;3.30;59.60;;;;;;5056509;28;20032;-75
2022/03/23 00:52:56;;;;;;;29.05;14.52;;;3.20;59.80;;;;;;5057244;28;20024;-75
2022/03/23 00:55:22;;;;;;;34.00;16.50;;;3.20;60.10;;;;;;5058143;28;20078;-75
2022/03/23 00:57:49;;;;;;;30.88;16.45;;;3.20;60.20;;;;;;5059899;28;20055;-74
2022/03/23 01:00:17;;;;;;;30.02;14.30;;;3.20;60.20;;;;;;5054202;28;20061;-75
2022/03/23 01:02:45;;;;;;;21.55;11.48;;;3.10;60.30;;;;;;5055637;28;20051;-75
2022/03/23 01:05:14;;;;;;;21.73;11.38;;;3.10;61.00;;;;;;5041038;28;20147;-75
2022/03/23 01:07:40;;;;;;;23.52;11.93;;;3.10;61.00;;;;;;5059700;28;20209;-75
2022/03/23 01:10:12;;;;;;;23.02;11.52;;;3.00;61.20;;;;;;5043767;28;20607;-75
2022/03/23 01:12:45;;;;;;;22.67;11.15;;;3.00;61.20;;;;;;5040115;28;20033;-76
2022/03/23 01:15:16;;;;;;;25.70;11.02;;;3.00;61.70;;;;;;5042450;28;20021;-75
2022/03/23 01:17:42;;;;;;;26.38;12.77;;;2.90;61.60;;;;;;5039996;28;20039;-74
2022/03/23 01:20:11;;;;;;;33.88;14.80;;;2.90;61.50;;;;;;5041398;28;20032;-76
2022/03/23 01:22:38;;;;;;;30.40;14.60;;;2.90;61.90;;;;;;5042126;28;20029;-76
2022/03/23 01:25:07;;;;;;;31.60;14.10;;;2.90;62.00;;;;;;5052428;28;20017;-74
2022/03/23 01:27:34;;;;;;;31.10;15.27;;;2.80;63.40;;;;;;5055790;28;20042;-76
2022/03/23 01:30:00;;;;;;;28.55;13.75;;;2.80;63.20;;;;;;5058895;28;20036;-75
2022/03/23 01:32:25;;;;;;;27.63;13.15;;;2.80;63.30;;;;;;5057179;28;20039;-75
2022/03/23 01:34:51;;;;;;;23.33;11.27;;;2.80;61.90;;;;;;5038513;28;20032;-75
2022/03/23 01:37:17;;;;;;;19.48;10.25;;;2.70;62.00;;;;;;5055481;28;20400;-75
2022/03/23 01:39:43;;;;;;;24.90;10.77;;;2.80;61.60;;;;;;5059073;28;20032;-75
2022/03/23 01:42:09;;;;;;;24.35;11.27;;;2.70;62.60;;;;;;5056597;28;20044;-75
2022/03/23 01:44:35;;;;;;;18.95;10.10;;;2.70;63.90;;;;;;5057172;28;20028;-75
2022/03/23 01:47:07;;;;;;;18.17;9.23;;;2.70;64.80;;;;;;5034946;28;20036;-75
2022/03/23 01:49:40;;;;;;;18.30;8.95;;;2.70;65.30;;;;;;5058011;28;20058;-75
2022/03/23 01:52:10;;;;;;;14.85;8.52;;;2.70;66.80;;;;;;5041760;28;20020;-75
2022/03/23 01:54:37;;;;;;;17.83;9.93;;;2.80;67.80;;;;;;5053525;28;20483;-75
2022/03/23 01:57:05;;;;;;;20.83;10.73;;;2.80;65.50;;;;;;5049758;28;20043;-75
2022/03/23 01:59:32;;;;;;;17.95;10.18;;;2.80;63.60;;;;;;5041052;28;20514;-75
2022/03/23 02:01:58;;;;;;;18.90;9.68;;;2.80;62.90;;;;;;5039980;28;20033;-76
2022/03/23 02:04:24;;;;;;;22.50;10.18;;;2.80;63.20;;;;;;5039114;28;20039;-75
2022/03/23 02:06:50;;;;;;;21.50;9.60;;;2.70;63.50;;;;;;5035008;28;20032;-75
2022/03/23 02:09:19;;;;;;;16.13;9.52;;;2.70;63.60;;;;;;5036324;28;20140;-75
2022/03/23 02:11:46;;;;;;;16.92;9.68;;;2.70;63.50;;;;;;5055184;28;20036;-76
2022/03/23 02:14:13;;;;;;;17.70;9.50;;;2.60;63.60;;;;;;5059564;28;20103;-75
2022/03/23 02:16:47;;;;;;;23.27;10.32;;;2.60;63.80;;;;;;5038413;28;20089;-75
2022/03/23 02:19:13;;;;;;;18.15;10.23;;;2.60;64.00;;;;;;5042954;28;20031;-75
2022/03/23 02:21:47;;;;;;;18.45;9.45;;;2.50;64.30;;;;;;5035443;28;20040;-75
2022/03/23 02:24:14;;;;;;;21.58;10.30;;;2.50;65.00;;;;;;5042993;28;20043;-75
2022/03/23 02:26:41;;;;;;;18.90;9.65;;;2.50;65.50;;;;;;5052486;28;20033;-76
2022/03/23 02:29:07;;;;;;;19.85;9.75;;;2.40;66.20;;;;;;5055952;28;20062;-75
2022/03/23 02:31:34;;;;;;;20.92;10.45;;;2.40;67.60;;;;;;5058118;28;20075;-75
2022/03/23 02:34:00;;;;;;;20.50;10.15;;;2.40;68.60;;;;;;5059884;28;20043;-75
2022/03/23 02:36:26;;;;;;;22.13;10.80;;;2.30;69.50;;;;;;5063055;28;20032;-75
2022/03/23 02:38:51;;;;;;;15.25;8.57;;;2.40;69.90;;;;;;5057263;28;20570;-76
2022/03/23 02:41:17;;;;;;;20.63;10.07;;;2.30;70.20;;;;;;5059570;28;20043;-75
2022/03/23 02:43:43;;;;;;;22.30;9.82;;;2.40;71.70;;;;;;5064526;28;20484;-69
2022/03/23 02:46:17;;;;;;;18.83;9.57;;;2.40;72.50;;;;;;5063144;28;20035;-69
2022/03/23 02:48:43;;;;;;;19.13;10.63;;;2.40;73.00;;;;;;5053129;28;20119;-69
2022/03/23 02:51:09;;;;;;;17.15;9.20;;;2.50;73.40;;;;;;5057917;28;20037;-69
2022/03/23 03:02:40;;;;;;;16.58;9.02;;;2.70;70.40;;;;;;5058928;28;20627;-69
2022/03/23 03:05:08;;;;;;;22.60;10.43;;;2.80;69.50;;;;;;5057757;28;20033;-69
2022/03/23 03:10:21;;;;;;;18.27;9.43;;;2.80;69.50;;;;;;5051286;28;20794;-69
2022/03/23 03:12:48;;;;;;;19.10;9.73;;;2.70;68.40;;;;;;5058228;28;20036;-69
2022/03/23 03:15:14;;;;;;;19.88;9.20;;;2.60;67.80;;;;;;5061102;28;20735;-69
2022/03/23 03:17:41;;;;;;;17.05;9.93;;;2.50;66.80;;;;;;5062244;28;20044;-69
2022/03/23 03:20:08;;;;;;;17.35;8.98;;;2.50;66.30;;;;;;5060759;28;20714;-69
2022/03/23 03:22:35;;;;;;;19.45;9.23;;;2.40;66.20;;;;;;5057646;28;20059;-69
2022/03/23 03:25:01;;;;;;;19.80;9.45;;;2.20;66.20;;;;;;5055705;28;20559;-69
2022/03/23 03:27:30;;;;;;;17.88;9.05;;;2.20;66.60;;;;;;5060984;28;20024;-69
2022/03/23 03:29:56;;;;;;;21.15;9.02;;;2.10;66.90;;;;;;5062533;28;20029;-69
2022/03/23 03:32:21;;;;;;;20.05;10.07;;;2.00;68.00;;;;;;5056569;28;20036;-69
2022/03/23 03:34:47;;;;;;;22.75;9.40;;;2.00;68.10;;;;;;5057820;28;20120;-69
2022/03/23 03:37:13;;;;;;;20.67;8.88;;;1.90;68.20;;;;;;5058347;28;20646;-69
2022/03/23 03:39:39;;;;;;;18.85;8.73;;;1.90;69.00;;;;;;5062257;28;20033;-69
2022/03/23 03:42:07;;;;;;;20.42;10.05;;;1.80;70.20;;;;;;5059452;28;20413;-69
2022/03/23 03:44:33;;;;;;;18.80;10.05;;;1.80;71.10;;;;;;5056672;28;20083;-69
2022/03/23 03:46:58;;;;;;;17.75;9.48;;;1.80;71.90;;;;;;5055440;28;20060;-69
2022/03/23 03:49:24;;;;;;;17.52;9.43;;;1.80;72.70;;;;;;5061003;28;20029;-69
2022/03/23 03:51:50;;;;;;;17.55;10.05;;;1.80;73.30;;;;;;5062144;28;20123;-69
2022/03/23 03:54:15;;;;;;;18.08;10.25;;;1.90;72.80;;;;;;5056568;28;20113;-69
2022/03/23 03:56:41;;;;;;;19.95;9.90;;;1.90;73.10;;;;;;5057933;28;20059;-69
2022/03/23 03:59:07;;;;;;;19.77;10.18;;;1.90;73.30;;;;;;5057681;28;20094;-69
2022/03/23 04:01:32;;;;;;;18.63;10.30;;;1.80;73.50;;;;;;5061689;28;20121;-69
2022/03/23 04:03:58;;;;;;;20.95;10.65;;;1.80;73.80;;;;;;5056512;28;20122;-69
2022/03/23 04:06:24;;;;;;;16.92;8.93;;;1.80;74.20;;;;;;5055272;28;20063;-69
2022/03/23 04:08:49;;;;;;;21.35;10.98;;;1.80;74.20;;;;;;5055242;28;20032;-69
2022/03/23 04:11:15;;;;;;;20.95;10.52;;;1.80;74.40;;;;;;5059527;28;20032;-69
2022/03/23 04:13:41;;;;;;;21.17;10.15;;;1.70;74.40;;;;;;5058803;28;20047;-69
2022/03/23 04:16:07;;;;;;;19.33;9.85;;;1.70;74.70;;;;;;5051397;28;20120;-69
2022/03/23 04:18:32;;;;;;;19.25;10.77;;;1.70;74.40;;;;;;5062370;28;20575;-69
2022/03/23 04:20:58;;;;;;;20.15;10.48;;;1.70;74.20;;;;;;5058371;28;20058;-69
2022/03/23 04:23:24;;;;;;;19.58;9.82;;;1.60;74.20;;;;;;5058337;28;20043;-69
2022/03/23 04:25:50;;;;;;;21.80;10.40;;;1.60;75.00;;;;;;5056768;28;20043;-69
2022/03/23 04:28:15;;;;;;;20.52;10.55;;;1.60;75.20;;;;;;5054177;28;20032;-69
2022/03/23 04:30:41;;;;;;;19.38;10.48;;;1.60;75.70;;;;;;5058074;28;20043;-69
2022/03/23 04:33:07;;;;;;;19.08;9.68;;;1.60;76.40;;;;;;5060095;28;20031;-69
2022/03/23 04:35:32;;;;;;;21.67;9.73;;;1.70;77.20;;;;;;5057462;28;20032;-69
2022/03/23 04:37:58;;;;;;;18.88;9.38;;;1.70;77.90;;;;;;5058581;28;20571;-69
2022/03/23 04:40:24;;;;;;;18.80;9.68;;;1.70;77.10;;;;;;5058077;28;20032;-69
2022/03/23 04:42:50;;;;;;;19.80;10.05;;;1.70;76.00;;;;;;5057762;28;20035;-69
2022/03/23 04:45:17;;;;;;;20.77;9.98;;;1.70;74.90;;;;;;5062052;28;20401;-68
2022/03/23 04:47:46;;;;;;;23.67;10.27;;;1.60;73.30;;;;;;5055627;28;20037;-70
2022/03/23 04:50:13;;;;;;;22.15;10.48;;;1.60;73.00;;;;;;5058543;28;20028;-69
2022/03/23 04:52:41;;;;;;;24.17;10.30;;;1.50;73.80;;;;;;5062307;28;20077;-69
2022/03/23 04:55:09;;;;;;;21.00;10.93;;;1.50;73.80;;;;;;5056445;28;20037;-69
2022/03/23 04:57:34;;;;;;;19.33;10.10;;;1.40;73.90;;;;;;5062195;28;20033;-70
2022/03/23 05:00:00;;;;;;;24.85;11.25;;;1.40;74.00;;;;;;5052665;28;20312;-69
2022/03/23 05:02:26;;;;;;;27.20;11.55;;;1.40;73.80;;;;;;5056784;28;20082;-69
2022/03/23 05:04:52;;;;;;;22.40;12.13;;;1.40;73.80;;;;;;5058153;28;20051;-70
2022/03/23 05:07:18;;;;;;;28.75;13.57;;;1.30;74.10;;;;;;5053827;28;20029;-70
2022/03/23 05:09:44;;;;;;;31.77;14.18;;;1.30;74.60;;;;;;5055505;28;20039;-69
2022/03/23 05:12:09;;;;;;;36.75;16.73;;;1.30;73.90;;;;;;5059996;28;20024;-70
2022/03/23 05:14:36;;;;;;;34.55;15.48;;;1.30;73.80;;;;;;5054404;28;20117;-69
2022/03/23 05:17:02;;;;;;;29.25;13.95;;;1.30;74.00;;;;;;5059748;28;20579;-69
2022/03/23 05:19:28;;;;;;;32.95;16.20;;;1.30;74.50;;;;;;5055176;28;20037;-69
2022/03/23 05:21:54;;;;;;;33.13;14.57;;;1.30;74.80;;;;;;5050532;28;20071;-70
2022/03/23 05:24:20;;;;;;;37.55;17.05;;;1.30;75.10;;;;;;5057902;28;20033;-69
2022/03/23 05:26:45;;;;;;;40.80;18.98;;;1.30;75.10;;;;;;5058824;28;20512;-69
2022/03/23 05:29:11;;;;;;;34.92;16.83;;;1.40;74.80;;;;;;5056713;28;20451;-69
2022/03/23 05:31:37;;;;;;;38.58;17.63;;;1.40;74.40;;;;;;5053484;28;20060;-69
2022/03/23 05:34:04;;;;;;;35.22;16.98;;;1.50;74.40;;;;;;5056140;28;20094;-69
2022/03/23 05:36:30;;;;;;;31.52;15.85;;;1.50;74.60;;;;;;5059259;28;20431;-69
2022/03/23 05:38:57;;;;;;;33.92;15.57;;;1.60;75.00;;;;;;5056561;28;20078;-69
2022/03/23 05:41:24;;;;;;;34.80;15.52;;;1.60;75.10;;;;;;5056767;28;20575;-69
2022/03/23 05:43:49;;;;;;;30.90;15.32;;;1.70;75.30;;;;;;5056952;28;20024;-69
2022/03/23 05:46:15;;;;;;;29.83;15.60;;;1.80;75.40;;;;;;5056050;28;20051;-69
2022/03/23 05:48:43;;;;;;;30.20;14.63;;;1.80;75.60;;;;;;5061235;28;20025;-69
2022/03/23 05:51:08;;;;;;;27.27;14.55;;;1.90;75.80;;;;;;5056317;28;20550;-69
2022/03/23 05:53:36;;;;;;;20.27;11.32;;;2.10;75.80;;;;;;5056365;28;20048;-69
2022/03/23 05:56:04;;;;;;;23.10;12.00;;;2.20;74.90;;;;;;5055764;28;20039;-69
2022/03/23 05:58:30;;;;;;;29.67;12.45;;;2.40;73.80;;;;;;5059035;28;20047;-69
2022/03/23 06:00:56;;;;;;;20.90;10.68;;;2.50;73.20;;;;;;5055248;28;20024;-69
2022/03/23 06:03:22;;;;;;;22.83;10.73;;;2.60;73.20;;;;;;5056577;28;20123;-69
2022/03/23 06:05:47;;;;;;;19.33;11.15;;;2.70;72.80;;;;;;5054140;28;20094;-69
2022/03/23 06:08:13;;;;;;;17.85;9.95;;;2.80;72.90;;;;;;5058844;28;20076;-69
2022/03/23 06:10:39;;;;;;;22.85;10.85;;;2.90;72.80;;;;;;5057500;28;20136;-69
2022/03/23 06:13:04;;;;;;;21.55;11.23;;;3.00;72.50;;;;;;5061237;28;20477;-69
2022/03/23 06:15:30;;;;;;;19.88;11.60;;;3.20;72.10;;;;;;5055878;28;20041;-69
2022/03/23 06:17:56;;;;;;;28.38;10.85;;;3.20;72.30;;;;;;5057822;28;20048;-70
2022/03/23 06:20:21;;;;;;;20.50;10.68;;;3.40;72.50;;;;;;5058912;28;20769;-69
2022/03/23 06:22:47;;;;;;;17.58;10.30;;;3.50;72.40;;;;;;5056060;28;20048;-69
2022/03/23 06:25:13;;;;;;;22.98;10.50;;;3.60;72.00;;;;;;5060178;28;20056;-69
2022/03/23 06:27:39;;;;;;;18.48;10.00;;;3.70;71.60;;;;;;5059965;28;20033;-69
2022/03/23 06:30:06;;;;;;;19.98;10.52;;;3.80;70.50;;;;;;5063163;28;20037;-69
2022/03/23 06:32:33;;;;;;;18.00;10.13;;;3.90;69.80;;;;;;5062922;28;20814;-69
2022/03/23 06:35:00;;;;;;;24.45;10.23;;;4.10;70.20;;;;;;5063230;28;20040;-69
2022/03/23 06:37:27;;;;;;;17.65;10.07;;;4.20;70.40;;;;;;5057155;28;20033;-69
2022/03/23 06:39:53;;;;;;;16.58;9.70;;;4.40;70.60;;;;;;5062773;28;20078;-69
2022/03/23 06:42:18;;;;;;;24.60;10.70;;;4.50;69.80;;;;;;5060368;28;20076;-69
2022/03/23 06:44:45;;;;;;;23.90;11.75;;;4.70;69.10;;;;;;5063016;28;20103;-70
2022/03/23 06:47:10;;;;;;;23.38;11.80;;;4.90;68.60;;;;;;5058695;28;20028;-69
2022/03/23 06:49:36;;;;;;;27.38;12.88;;;5.00;67.80;;;;;;5060874;28;20040;-69
2022/03/23 06:52:02;;;;;;;19.90;10.65;;;5.20;67.00;;;;;;5058315;28;20606;-70
2022/03/23 06:54:28;;;;;;;24.13;10.50;;;5.30;66.20;;;;;;5062025;28;20114;-69
2022/03/23 06:56:54;;;;;;;23.88;11.35;;;5.50;65.70;;;;;;5046388;28;20127;-69
2022/03/23 06:59:19;;;;;;;20.65;10.63;;;5.70;65.20;;;;;;5057354;28;20040;-70
2022/03/23 07:01:45;;;;;;;23.20;11.13;;;5.80;64.60;;;;;;5052758;28;20043;-70
2022/03/23 07:04:11;;;;;;;22.10;12.27;;;6.00;64.20;;;;;;5058249;28;20037;-69
2022/03/23 07:06:36;;;;;;;26.77;12.27;;;6.20;63.40;;;;;;5063484;28;20039;-67
2022/03/23 07:11:47;;;;;;;17.60;10.43;;;8.90;58.60;;;;;;5053115;28;20037;-67
2022/03/23 07:14:12;;;;;;;20.10;11.43;;;13.00;48.90;;;;;;5063356;28;20039;-67
2022/03/23 07:16:38;;;;;;;20.77;11.93;;;15.70;41.40;;;;;;5057781;28;20039;-67
2022/03/23 07:19:04;;;;;;;29.45;12.80;;;17.00;38.20;;;;;;5059375;28;20064;-67
2022/03/23 07:21:31;;;;;;;20.08;12.32;;;16.30;38.70;;;;;;5059759;28;20063;-67
2022/03/23 07:23:56;;;;;;;19.80;11.48;;;16.20;38.20;;;;;;5055694;28;20025;-67
2022/03/23 07:26:22;;;;;;;23.38;12.20;;;15.80;38.90;;;;;;5059158;28;20082;-67
2022/03/23 07:28:48;;;;;;;20.63;12.48;;;16.20;38.00;;;;;;5056238;28;20143;-67
2022/03/23 07:31:14;;;;;;;22.65;13.57;;;16.90;35.90;;;;;;5059815;28;20025;-67
2022/03/23 07:33:40;;;;;;;19.25;11.80;;;17.80;34.00;;;;;;5061128;28;20453;-67
2022/03/23 07:36:06;;;;;;;20.30;12.95;;;17.40;35.00;;;;;;5057652;28;20032;-67
2022/03/23 07:38:32;;;;;;;19.05;12.27;;;18.10;33.80;;;;;;5063582;28;20039;-69
2022/03/23 07:40:58;;;;;;;22.02;12.77;;;19.20;32.60;;;;;;5059064;28;20145;-67
2022/03/23 07:43:23;;;;;;;21.92;12.77;;;19.10;32.20;;;;;;5057594;28;20480;-67
2022/03/23 07:45:49;;;;;;;20.75;12.65;;;19.60;31.70;;;;;;5056815;28;20092;-67
2022/03/23 07:48:16;;;;;;;22.75;12.75;;;21.10;29.90;;;;;;5056782;28;20399;-67
2022/03/23 07:50:42;;;;;;;21.35;13.85;;;23.00;28.00;;;;;;5059306;28;21019;-67
2022/03/23 07:53:08;;;;;;;21.75;13.70;;;23.90;26.60;;;;;;5055414;28;20023;-67
2022/03/23 07:55:34;;;;;;;20.40;12.63;;;24.30;26.00;;;;;;5054021;28;20408;-67
2022/03/23 07:57:59;;;;;;;19.80;12.70;;;24.70;25.80;;;;;;5056933;28;20758;-68
2022/03/23 08:00:25;;;;;;;19.98;13.32;;;26.20;25.00;;;;;;5052319;28;20575;-67
2022/03/23 08:02:51;;;;;;;21.25;13.02;;;27.50;24.00;;;;;;5054700;28;20443;-67
2022/03/23 08:05:17;;;;;;;20.92;12.45;;;27.60;23.60;;;;;;5053564;28;20032;-67
2022/03/23 08:07:43;;;;;;;18.75;12.98;;;26.80;23.70;;;;;;5056801;28;20028;-67
2022/03/23 08:10:09;;;;;;;21.15;13.23;;;26.40;24.30;;;;;;5055122;28;20516;-67
2022/03/23 08:12:35;;;;;;;22.40;12.90;;;26.40;24.40;;;;;;5059108;28;20047;-66
2022/03/23 08:15:01;;;;;;;16.85;12.20;;;26.80;24.00;;;;;;5058216;28;20032;-71
2022/03/23 08:17:27;;;;;;;19.52;12.32;;;27.60;23.60;;;;;;5053411;28;20732;-67
2022/03/23 08:22:57;;;;;;;19.42;12.70;;;27.60;23.60;;;;;;5019376;28;20044;-68
2022/03/23 08:25:23;;;;;;;20.88;14.00;;;26.20;24.50;;;;;;5002532;28;20644;-67
2022/03/23 08:27:49;;;;;;;19.90;12.93;;;25.60;24.60;;;;;;5033575;28;20497;-66
2022/03/23 08:30:15;;;;;;;19.38;13.00;;;24.40;25.30;;;;;;5056274;28;20039;-67
2022/03/23 08:32:40;;;;;;;19.30;13.25;;;23.30;26.50;;;;;;5052526;28;20346;-69
2022/03/23 08:35:07;;;;;;;17.77;12.55;;;22.60;27.30;;;;;;5057107;28;20719;-66
2022/03/23 08:37:33;;;;;;;17.98;11.73;;;22.60;27.60;;;;;;5059483;28;20062;-66
2022/03/23 08:39:59;;;;;;;17.83;12.07;;;24.40;26.10;;;;;;5053002;28;20032;-66
2022/03/23 08:42:25;;;;;;;16.42;11.63;;;25.80;24.60;;;;;;5060709;28;20036;-66
2022/03/23 08:44:51;;;;;;;21.55;11.38;;;27.80;23.90;;;;;;5055641;28;20089;-66
2022/03/23 08:47:17;;;;;;;19.92;11.48;;;29.50;22.60;;;;;;5050924;28;20052;-66
2022/03/23 08:49:46;;;;;;;17.88;11.50;;;28.50;22.80;;;;;;5061843;28;20044;-66
2022/03/23 08:52:12;;;;;;;19.55;11.32;;;26.10;24.30;;;;;;5059240;28;20033;-67
2022/03/23 08:54:38;;;;;;;15.77;11.52;;;24.40;25.70;;;;;;5060100;28;20042;-75
2022/03/23 08:57:04;;;;;;;14.95;10.73;;;25.50;24.80;;;;;;5055409;28;20029;-73
2022/03/23 08:59:30;;;;;;;16.48;11.35;;;28.00;22.60;;;;;;5057103;28;20454;-72
2022/03/23 09:01:56;;;;;;;19.67;12.30;;;28.40;22.40;;;;;;5054490;28;20036;-75
2022/03/23 09:04:23;;;;;;;17.42;11.52;;;28.90;22.30;;;;;;5056881;28;20112;-75
2022/03/23 09:06:49;;;;;;;14.93;11.55;;;29.90;21.60;;;;;;5056931;28;20135;-75
2022/03/23 09:09:15;;;;;;;14.27;11.30;;;31.80;21.60;;;;;;5050841;28;20222;-75
2022/03/23 09:11:44;;;;;;;15.23;11.13;;;33.70;20.60;;;;;;5052063;28;20032;-75
2022/03/23 09:14:12;;;;;;;15.50;10.57;;;34.60;20.10;;;;;;5057767;28;20105;-75
2022/03/23 09:16:38;;;;;;;13.73;10.32;;;35.80;19.10;;;;;;5058459;28;20774;-75
2022/03/23 09:19:04;;;;;;;14.02;10.48;;;36.70;19.10;;;;;;5051781;28;20064;-76
2022/03/23 09:21:29;;;;;;;19.13;10.73;;;36.90;18.70;;;;;;5050680;28;20124;-75
2022/03/23 09:23:55;;;;;;;15.95;10.70;;;36.20;18.90;;;;;;5053035;28;20048;-76
2022/03/23 09:26:21;;;;;;;16.58;10.85;;;35.40;19.30;;;;;;5051107;28;20047;-75
2022/03/23 09:28:48;;;;;;;13.50;11.07;;;35.60;19.40;;;;;;5060236;28;20056;-76
2022/03/23 09:31:13;;;;;;;17.17;11.27;;;35.10;19.80;;;;;;5057419;28;20036;-76
2022/03/23 09:33:39;;;;;;;18.17;11.77;;;34.00;20.10;;;;;;5055961;28;20032;-75
2022/03/23 09:36:05;;;;;;;13.13;11.52;;;34.40;20.70;;;;;;5053824;28;20062;-75
2022/03/23 09:38:31;;;;;;;20.25;12.68;;;32.70;21.70;;;;;;5060267;28;20350;-76
2022/03/23 09:40:57;;;;;;;16.95;11.38;;;29.60;23.60;;;;;;5057037;28;20042;-75
2022/03/23 09:43:24;;;;;;;17.10;11.27;;;27.10;24.70;;;;;;5055897;28;20064;-75
2022/03/23 09:45:51;;;;;;;16.40;11.65;;;26.10;25.20;;;;;;5056426;28;20078;-75
2022/03/23 09:48:21;;;;;;;18.00;12.65;;;27.20;24.00;;;;;;5059913;28;20037;-76
2022/03/23 09:50:50;;;;;;;16.63;11.95;;;30.20;23.00;;;;;;5053180;28;20032;-76
2022/03/23 09:53:16;;;;;;;15.20;11.93;;;33.60;21.70;;;;;;5052099;28;20122;-76
2022/03/23 09:55:43;;;;;;;17.00;13.02;;;34.70;20.70;;;;;;5057723;28;20144;-76
2022/03/23 09:58:10;;;;;;;21.13;12.95;;;32.80;21.60;;;;;;5056927;28;20108;-75
2022/03/23 10:00:39;;;;;;;21.30;12.90;;;30.10;22.90;;;;;;5054670;28;20881;-76
2022/03/23 10:03:15;;;;;;;18.25;12.60;;;27.50;23.80;;;;;;5061231;28;20036;-75
2022/03/23 10:05:59;;;;;;;;;;;26.60;24.10;;;;;;5053999;28;20037;-75
2022/03/23 10:09:02;;;;;;;20.90;13.93;;;29.50;23.00;;;;;;5054894;28;19920;-75
2022/03/23 10:11:58;;;;;;;17.95;13.43;;;33.00;21.40;;;;;;5057820;28;20040;-75
2022/03/23 10:14:56;;;;;;;17.98;13.52;;;36.70;20.00;;;;;;5056163;28;20078;-76
2022/03/23 10:17:53;;;;;;;16.95;12.20;;;39.60;19.40;;;;;;5054254;28;20033;-67
2022/03/23 10:20:19;;;;;;;19.42;11.95;;;41.40;18.50;;;;;;5058983;28;20107;-67
2022/03/23 10:22:53;;;;;;;18.88;13.52;;;41.10;17.70;;;;;;5055625;28;20587;-66
2022/03/23 10:25:21;;;;;;;16.05;12.70;;;40.70;18.00;;;;;;5031737;28;20638;-67
2022/03/23 10:27:47;;;;;;;18.75;13.40;;;39.30;18.40;;;;;;5055386;28;20467;-66
2022/03/23 10:30:16;;;;;;;17.15;11.55;;;39.80;18.30;;;;;;5058241;28;20021;-66
2022/03/23 10:32:42;;;;;;;18.42;12.98;;;42.00;18.30;;;;;;5056112;28;20040;-71
2022/03/23 10:35:16;;;;;;;17.55;12.32;;;43.70;17.50;;;;;;5051805;28;20029;-66
2022/03/23 10:37:43;;;;;;;15.13;12.48;;;44.30;17.20;;;;;;5050505;28;20041;-67
2022/03/23 10:40:17;;;;;;;17.00;13.43;;;44.40;17.10;;;;;;5056424;28;20143;-68
2022/03/23 10:42:45;;;;;;;14.88;12.05;;;44.40;16.90;;;;;;5055604;28;20113;-76
2022/03/23 10:45:15;;;;;;;17.90;12.23;;;44.00;16.90;;;;;;5053627;28;20461;-66
2022/03/23 10:47:42;;;;;;;14.43;11.88;;;43.60;17.30;;;;;;5053230;28;20087;-67
2022/03/23 10:50:11;;;;;;;18.88;12.73;;;42.60;17.00;;;;;;5056574;28;20051;-67
2022/03/23 10:52:51;;;;;;;15.52;12.40;;;41.80;17.20;;;;;;5056256;28;20485;-67
2022/03/23 10:55:17;;;;;;;17.98;12.38;;;40.20;17.70;;;;;;5056009;28;20047;-67
2022/03/23 10:58:01;;;;;;;17.17;12.68;;;38.70;17.90;;;;;;5057131;28;20097;-68
2022/03/23 11:00:27;;;;;;;18.90;12.40;;;39.00;18.20;;;;;;5056911;28;20041;-67
2022/03/23 11:02:53;;;;;;;20.30;13.02;;;38.00;18.60;;;;;;5043339;28;20377;-68
2022/03/23 11:05:34;;;;;;;16.45;12.20;;;36.80;18.50;;;;;;5062549;28;20029;-67
2022/03/23 11:08:12;;;;;;;15.48;11.30;;;37.00;18.90;;;;;;5052842;28;20031;-67
2022/03/23 11:16:18;;;;;;;17.05;11.13;;;35.00;17.90;;;;;;5062683;28;20032;-67
2022/03/23 11:18:45;;;;;;;16.67;12.32;;;32.60;18.80;;;;;;5055155;28;20067;-67
2022/03/23 11:21:12;;;;;;;19.77;12.80;;;29.50;20.40;;;;;;5052216;28;20033;-67
2022/03/23 11:23:38;;;;;;;19.25;12.75;;;27.00;21.40;;;;;;5055852;28;20048;-67
2022/03/23 11:26:10;;;;;;;16.10;12.05;;;25.10;22.20;;;;;;5060722;28;20512;-67
2022/03/23 11:28:40;;;;;;;20.92;13.70;;;23.50;24.00;;;;;;5062516;28;20037;-66
2022/03/23 11:31:10;;;;;;;23.40;14.15;;;22.70;26.20;;;;;;5056761;28;20032;-67
2022/03/23 11:33:37;;;;;;;20.45;13.73;;;22.40;26.80;;;;;;5055104;28;20036;-66
2022/03/23 11:36:11;;;;;;;24.23;14.93;;;22.30;26.20;;;;;;5041655;28;20437;-71
2022/03/23 11:38:37;;;;;;;24.52;15.45;;;22.00;27.30;;;;;;5059139;28;20041;-68
2022/03/23 11:41:05;;;;;;;28.60;17.15;;;21.90;28.10;;;;;;5052802;28;20047;-67
2022/03/23 11:43:36;;;;;;;25.65;18.02;;;21.80;29.00;;;;;;5059694;28;20036;-67
2022/03/23 11:46:04;;;;;;;27.60;16.42;;;21.70;28.80;;;;;;5059080;28;20037;-67
2022/03/23 11:48:45;;;;;;;27.95;17.08;;;21.60;29.40;;;;;;5062727;28;20032;-67
2022/03/23 11:51:14;;;;;;;25.25;17.20;;;21.60;29.80;;;;;;5055193;28;20025;-67
2022/03/23 11:53:40;;;;;;;24.42;16.48;;;21.60;29.60;;;;;;5056142;28;20072;-67
2022/03/23 11:56:06;;;;;;;24.38;16.88;;;21.60;29.70;;;;;;5056240;28;20083;-73
2022/03/23 11:58:34;;;;;;;33.13;17.60;;;21.60;30.30;;;;;;5061259;28;20050;-66
2022/03/23 12:01:10;;;;;;;24.48;17.02;;;21.60;29.70;;;;;;5062211;28;20106;-66
2022/03/23 12:04:01;;;;;;;24.85;16.75;;;21.60;29.30;;;;;;5050882;28;20044;-66
2022/03/23 12:06:39;;;;;;;23.27;17.25;;;21.60;29.70;;;;;;5059997;28;20029;-66
2022/03/23 12:09:05;;;;;;;26.42;17.55;;;21.50;29.50;;;;;;5058627;28;20029;-66
2022/03/23 12:11:43;;;;;;;24.90;17.10;;;21.40;29.60;;;;;;5058327;28;20041;-66
2022/03/23 12:14:21;;;;;;;24.40;15.90;;;21.30;29.60;;;;;;5054549;28;20033;-66
2022/03/23 12:16:50;;;;;;;25.33;16.35;;;21.30;29.80;;;;;;5042086;28;20388;-66
2022/03/23 12:19:22;;;;;;;29.08;17.08;;;21.30;29.80;;;;;;5060739;28;20024;-66
2022/03/23 12:22:06;;;;;;;24.80;16.38;;;21.30;29.70;;;;;;5057958;28;20119;-66
2022/03/23 12:24:41;;;;;;;24.77;16.65;;;21.20;29.50;;;;;;5055157;28;20029;-66
2022/03/23 12:27:39;;;;;;;22.83;15.93;;;21.20;28.70;;;;;;5057699;28;20045;-66
2022/03/23 12:30:37;;;;;;;24.55;15.70;;;21.10;29.20;;;;;;5028273;28;20741;-65
2022/03/23 12:33:12;;;;;;;22.92;15.65;;;21.00;29.10;;;;;;5059780;28;20048;-65
2022/03/23 12:35:39;;;;;;;22.63;16.63;;;21.00;29.50;;;;;;5057346;28;20111;-74
2022/03/23 12:38:25;;;;;;;22.80;16.20;;;21.00;29.30;;;;;;5055847;28;20044;-75
2022/03/23 12:40:51;;;;;;;21.05;14.90;;;21.00;29.00;;;;;;5050432;28;20068;-75
2022/03/23 12:43:42;;;;;;;23.05;15.32;;;21.00;29.10;;;;;;5056575;28;20089;-77
2022/03/23 12:46:27;;;;;;;21.15;15.15;;;20.90;28.70;;;;;;5045956;28;20417;-69
2022/03/23 12:57:49;;;;;;;28.20;15.57;;;20.60;29.80;;;;;;5059698;28;20453;-69
2022/03/23 13:00:27;;;;;;;25.05;16.48;;;20.60;29.70;;;;;;5051082;28;20074;-69
2022/03/23 13:03:08;;;;;;;26.70;16.92;;;20.60;29.40;;;;;;5052259;28;20036;-69
2022/03/23 13:05:57;;;;;;;27.48;17.42;;;20.70;29.40;;;;;;5056215;28;20043;-70
2022/03/23 13:08:44;;;;;;;24.08;16.95;;;20.70;30.00;;;;;;5056907;28;20045;-67
2022/03/23 13:11:10;;;;;;;31.55;16.77;;;20.70;29.50;;;;;;5053122;28;20029;-67